Quinsam — VY6800 — position and weather

sailwx.info

Track history (hours):
 
Tides and Currents Weather Stations Pressure Air Temp Water Temp Dewpoint Dewpoint Depression Visibility Wind Speed Wind Dir Waves Ship Positions

Quinsam

Last reported at 2015-Apr-21 06:23 UTC. Time now 2015-Apr-21 08:14 UTC.
Position N 49°11' W 123°52'.

Length 88 m; draft 1.5 m.

Type: Ship. MMSI: 316001266.

Date/timePositionNaut miles runAvg speedWind from/ knotsBaromVisibWave heightAir tempDewpointWater temp
2015-Apr-21 06:23N 49°11' W 123°52'1 0.6
2015-Apr-21 05:33N 49°11' W 123°52'0 0.2
2015-Apr-21 04:33N 49°11' W 123°52'1 0.8
2015-Apr-21 03:33N 49°10' W 123°53'1 0.8
2015-Apr-21 02:34N 49°11' W 123°52'0 0.2
2015-Apr-21 01:33N 49°11' W 123°52'0 0.0
2015-Apr-21 00:33N 49°11' W 123°52'1 1.4
2015-Apr-20 23:33N 49°10' W 123°54'2 1.4
2015-Apr-20 22:30N 49°10' W 123°56'0 0.4
2015-Apr-20 21:33N 49°10' W 123°55'2 1.6
2015-Apr-20 20:33N 49°11' W 123°53'1 1.0
2015-Apr-20 19:33N 49°11' W 123°52'2 1.9
2015-Apr-20 18:33N 49°10' W 123°54'1 1.0
2015-Apr-20 17:32N 49°10' W 123°56'0 0.2
2015-Apr-20 16:33N 49°10' W 123°55'2 2.4
2015-Apr-20 15:33N 49°11' W 123°52'0 0.2
2015-Apr-20 14:32N 49°11' W 123°52'3 2.8
2015-Apr-20 13:33N 49°10' W 123°56'3 2.7
2015-Apr-20 12:31N 49°11' W 123°52'0 0.0
2015-Apr-20 10:25N 49°11' W 123°52'0 0.0
2015-Apr-20 09:07N 49°11' W 123°52'0 0.0
2015-Apr-20 08:31N 49°11' W 123°52'0 0.0
2015-Apr-20 07:31N 49°11' W 123°52'0 0.0
2015-Apr-20 06:25N 49°11' W 123°52'0 0.5
2015-Apr-20 05:33N 49°11' W 123°52'0 0.0
2015-Apr-20 04:33N 49°11' W 123°52'1 0.8
2015-Apr-20 03:33N 49°10' W 123°53'1 1.0
2015-Apr-20 02:33N 49°11' W 123°52'0 0.2
2015-Apr-20 01:32N 49°11' W 123°52'0 0.0
2015-Apr-20 00:32N 49°11' W 123°52'2 1.6
2015-Apr-19 23:33N 49°10' W 123°54'1 1.3
2015-Apr-19 22:33N 49°10' W 123°56'3 2.5
2015-Apr-19 21:23N 49°11' W 123°52'0 0.1
2015-Apr-19 20:32N 49°11' W 123°52'0 0.1
2015-Apr-19 19:31N 49°11' W 123°52'2 2.0
2015-Apr-19 18:33N 49°10' W 123°54'1 1.0
2015-Apr-19 17:33N 49°10' W 123°56'1 0.6
2015-Apr-19 16:34N 49°10' W 123°55'2 1.9
2015-Apr-19 15:32N 49°11' W 123°52'3 2.5
2015-Apr-19 14:31N 49°10' W 123°56'0 0.5
2015-Apr-19 13:33N 49°10' W 123°55'2 1.8
2015-Apr-19 12:13N 49°11' W 123°52'0 0.0
2015-Apr-19 11:31N 49°11' W 123°52'0 0.0
2015-Apr-19 10:25N 49°11' W 123°52'0 0.0
2015-Apr-19 09:25N 49°11' W 123°52'0 0.0
2015-Apr-19 08:31N 49°11' W 123°52'0 0.0
2015-Apr-19 07:31N 49°11' W 123°52'0 0.0
2015-Apr-19 06:31N 49°11' W 123°52'1 0.6
2015-Apr-19 05:33N 49°11' W 123°52'0 0.1
2015-Apr-19 04:33N 49°11' W 123°53'1 0.6
2015-Apr-19 03:33N 49°11' W 123°53'1 0.8
2015-Apr-19 02:31N 49°11' W 123°52'0 0.3
2015-Apr-19 01:32N 49°11' W 123°52'0 0.0
2015-Apr-19 00:31N 49°11' W 123°52'2 1.9
2015-Apr-18 23:33N 49°10' W 123°54'1 1.1
2015-Apr-18 22:33N 49°10' W 123°56'2 1.2
2015-Apr-18 20:33N 49°11' W 123°52'0 0.5
2015-Apr-18 19:33N 49°11' W 123°52'2 2.0
2015-Apr-18 18:33N 49°10' W 123°55'1 0.7
2015-Apr-18 17:26N 49°10' W 123°56'1 0.9
2015-Apr-18 16:33N 49°10' W 123°55'2 1.9
2015-Apr-18 15:33N 49°11' W 123°52'0 0.1
2015-Apr-18 14:33N 49°11' W 123°52'3 2.8
2015-Apr-18 13:33N 49°10' W 123°56'3 2.7
2015-Apr-18 12:31N 49°11' W 123°52'0 0.0
2015-Apr-18 11:28N 49°11' W 123°52'0 0.0
2015-Apr-18 10:28N 49°11' W 123°52'0 0.0
2015-Apr-18 09:13N 49°11' W 123°52'0 0.0
2015-Apr-18 08:25N 49°11' W 123°52'0 0.0
2015-Apr-18 07:28N 49°11' W 123°52'0 0.0
2015-Apr-18 06:28N 49°11' W 123°52'1 0.6
2015-Apr-18 05:33N 49°11' W 123°52'1 0.5
2015-Apr-18 04:34N 49°11' W 123°52'1 1.3
2015-Apr-18 03:33N 49°11' W 123°53'1 1.2
2015-Apr-18 02:33N 49°11' W 123°52'0 0.1
2015-Apr-18 01:33N 49°11' W 123°52'0 0.0
2015-Apr-18 00:33N 49°11' W 123°52'2 2.1
2015-Apr-17 23:33N 49°10' W 123°55'1 0.8
2015-Apr-17 22:33N 49°10' W 123°56'1 0.9
2015-Apr-17 21:33N 49°10' W 123°54'1 1.3
2015-Apr-17 20:30N 49°11' W 123°53'1 0.7
2015-Apr-17 19:33N 49°11' W 123°52'2 1.8
2015-Apr-17 18:33N 49°10' W 123°54'1 1.0
2015-Apr-17 17:30N 49°10' W 123°56'1 1.1
2015-Apr-17 16:34N 49°10' W 123°54'2 1.6
2015-Apr-17 15:31N 49°11' W 123°52'0 0.2
2015-Apr-17 14:33N 49°11' W 123°52'2 2.4
2015-Apr-17 13:33N 49°10' W 123°55'2 2.3
2015-Apr-17 12:29N 49°11' W 123°52'0 0.0
2015-Apr-17 11:11N 49°11' W 123°52'0 0.0
2015-Apr-17 10:29N 49°11' W 123°52'0 0.0
2015-Apr-17 09:29N 49°11' W 123°52'0 0.0
2015-Apr-17 08:26N 49°11' W 123°52'0 0.0
2015-Apr-17 07:26N 49°11' W 123°52'0 0.0
2015-Apr-17 06:29N 49°11' W 123°52'0 0.0
2015-Apr-17 05:33N 49°11' W 123°52'0 0.0
2015-Apr-17 04:33N 49°11' W 123°52'1 1.3
2015-Apr-17 03:33N 49°10' W 123°53'1 1.2
2015-Apr-17 02:33N 49°11' W 123°52'0 0.3
2015-Apr-17 01:26N 49°11' W 123°52'0 0.1
2015-Apr-17 00:13N 49°11' W 123°52'2 2.5
2015-Apr-16 23:33N 49°10' W 123°55'1 0.7
2015-Apr-16 22:33N 49°10' W 123°56'1 1.2
2015-Apr-16 21:33N 49°10' W 123°54'2 1.6
2015-Apr-16 20:31N 49°11' W 123°52'0 0.1
2015-Apr-16 19:22N 49°11' W 123°52'2 2.0
2015-Apr-16 18:33N 49°10' W 123°54'1 1.1
2015-Apr-16 17:25N 49°10' W 123°56'1 0.6
2015-Apr-16 16:33N 49°10' W 123°55'2 2.4
2015-Apr-16 15:33N 49°11' W 123°52'0 0.0
2015-Apr-16 14:33N 49°11' W 123°52'3 2.5
2015-Apr-16 13:33N 49°10' W 123°55'3 2.1
2015-Apr-16 12:20N 49°11' W 123°52'0 0.0
2015-Apr-16 11:26N 49°11' W 123°52'0 0.0
2015-Apr-16 10:26N 49°11' W 123°52'0 0.0
2015-Apr-16 09:32N 49°11' W 123°52'0 0.0
2015-Apr-16 08:32N 49°11' W 123°52'0 0.0
2015-Apr-16 07:29N 49°11' W 123°52'0 0.0
2015-Apr-16 06:21N 49°11' W 123°52'3 3.6
2015-Apr-16 05:33N 49°10' W 123°56'3 2.5
2015-Apr-16 04:34N 49°11' W 123°52'1 0.9
2015-Apr-16 03:33N 49°10' W 123°53'1 1.1
2015-Apr-16 02:33N 49°11' W 123°52'0 0.2
2015-Apr-16 01:31N 49°11' W 123°52'0 0.0
2015-Apr-16 00:27N 49°11' W 123°52'1 1.6
2015-Apr-15 23:33N 49°10' W 123°54'1 1.4
2015-Apr-15 22:33N 49°10' W 123°56'1 1.0
2015-Apr-15 21:33N 49°10' W 123°54'2 1.9
2015-Apr-15 20:33N 49°11' W 123°52'0 0.0
2015-Apr-15 19:21N 49°11' W 123°52'2 2.4
2015-Apr-15 18:33N 49°10' W 123°54'1 1.0
2015-Apr-15 17:31N 49°10' W 123°56'1 0.8
2015-Apr-15 16:33N 49°10' W 123°55'2 1.9
2015-Apr-15 15:31N 49°11' W 123°52'0 0.2
2015-Apr-15 14:29N 49°11' W 123°52'2 2.7
2015-Apr-15 13:33N 49°10' W 123°55'2 0.4
2015-Apr-15 07:30N 49°11' W 123°52'0 0.0
2015-Apr-15 06:33N 49°11' W 123°52'0 0.5
2015-Apr-15 05:33N 49°11' W 123°52'0 0.0
2015-Apr-15 04:33N 49°11' W 123°52'1 0.7
2015-Apr-15 03:33N 49°10' W 123°53'1 0.7
2015-Apr-15 02:32N 49°11' W 123°52'0 0.5
2015-Apr-15 01:33N 49°11' W 123°52'0 0.0
2015-Apr-15 00:33N 49°11' W 123°52'2 1.7
2015-Apr-14 23:33N 49°10' W 123°54'1 1.0
2015-Apr-14 22:26N 49°10' W 123°56'1 0.6
2015-Apr-14 21:33N 49°10' W 123°55'2 2.1
2015-Apr-14 20:30N 49°11' W 123°52'0 0.2
2015-Apr-14 19:24N 49°11' W 123°52'1 1.5
2015-Apr-14 18:33N 49°10' W 123°53'2 1.6
2015-Apr-14 17:33N 49°10' W 123°56'0 0.1
2015-Apr-14 16:33N 49°10' W 123°56'2 1.9
2015-Apr-14 15:33N 49°11' W 123°53'1 1.0
2015-Apr-14 14:34N 49°11' W 123°52'2 2.1
2015-Apr-14 13:33N 49°10' W 123°55'2 1.5
2015-Apr-14 12:10N 49°11' W 123°52'0 0.0
2015-Apr-14 09:19N 49°11' W 123°52'0 0.0
2015-Apr-14 07:28N 49°11' W 123°52'0 0.0
2015-Apr-14 06:31N 49°11' W 123°52'0 0.5
2015-Apr-14 05:33N 49°11' W 123°52'0 0.1
2015-Apr-14 04:34N 49°11' W 123°52'0 0.4
2015-Apr-14 03:33N 49°11' W 123°53'1 0.5
2015-Apr-14 02:34N 49°11' W 123°52'0 0.4
2015-Apr-14 01:33N 49°11' W 123°52'0 0.0
2015-Apr-14 00:31N 49°11' W 123°52'2 1.9
2015-Apr-13 23:33N 49°10' W 123°54'1 0.9
2015-Apr-13 22:25N 49°10' W 123°56'0 0.1
2015-Apr-13 21:33N 49°10' W 123°56'2 2.2
2015-Apr-13 20:33N 49°11' W 123°53'1 0.7
2015-Apr-13 19:29N 49°11' W 123°52'2 1.8
2015-Apr-13 18:33N 49°10' W 123°54'1 1.2
2015-Apr-13 17:32N 49°10' W 123°56'1 0.5
2015-Apr-13 16:33N 49°10' W 123°55'2 2.1
2015-Apr-13 15:32N 49°11' W 123°52'0 0.3
2015-Apr-13 14:33N 49°11' W 123°52'3 2.6
2015-Apr-13 13:33N 49°10' W 123°55'3 2.4
2015-Apr-13 12:28N 49°11' W 123°52'0 0.0
2015-Apr-13 11:16N 49°11' W 123°52'0 0.0
2015-Apr-13 07:07N 49°11' W 123°52'0 0.0
2015-Apr-13 06:31N 49°11' W 123°52'1 0.6
2015-Apr-13 05:34N 49°11' W 123°52'0 0.1
2015-Apr-13 04:33N 49°11' W 123°52'1 0.5
2015-Apr-13 03:33N 49°11' W 123°53'0 0.4
2015-Apr-13 02:34N 49°11' W 123°52'0 0.2
2015-Apr-13 01:27N 49°11' W 123°52'0 0.3
2015-Apr-13 00:33N 49°11' W 123°52'2 2.0
2015-Apr-12 23:33N 49°10' W 123°54'1 0.9
2015-Apr-12 22:29N 49°10' W 123°56'3 2.9
2015-Apr-12 21:29N 49°11' W 123°52'0 0.2
2015-Apr-12 20:32N 49°11' W 123°52'0 0.2
2015-Apr-12 19:33N 49°11' W 123°52'1 1.1
2015-Apr-12 18:33N 49°10' W 123°53'2 1.8
2015-Apr-12 17:33N 49°10' W 123°56'0 0.0
2015-Apr-12 16:33N 49°10' W 123°56'3 2.6
2015-Apr-12 15:33N 49°11' W 123°52'3 2.6
2015-Apr-12 14:33N 49°10' W 123°56'0 0.3
2015-Apr-12 13:33N 49°10' W 123°55'3 0.4
2015-Apr-12 06:29N 49°11' W 123°52'0 0.5
2015-Apr-12 05:34N 49°11' W 123°52'0 0.5
2015-Apr-12 04:33N 49°11' W 123°52'1 0.7
2015-Apr-12 03:33N 49°11' W 123°53'0 0.4
2015-Apr-12 02:33N 49°11' W 123°52'0 0.4
2015-Apr-12 01:33N 49°11' W 123°52'0 0.0
2015-Apr-12 00:33N 49°11' W 123°52'2 1.5
2015-Apr-11 23:33N 49°10' W 123°54'1 1.4
2015-Apr-11 22:33N 49°10' W 123°56'3 2.9
2015-Apr-11 21:33N 49°11' W 123°52'0 0.2
2015-Apr-11 20:33N 49°11' W 123°52'0 0.2
2015-Apr-11 19:28N 49°11' W 123°52'2 1.9
2015-Apr-11 18:33N 49°10' W 123°54'1 1.1
2015-Apr-11 17:33N 49°10' W 123°56'1 0.7
2015-Apr-11 16:33N 49°10' W 123°55'2 2.0
2015-Apr-11 15:33N 49°11' W 123°52'0 0.1
2015-Apr-11 14:21N 49°11' W 123°52'3 3.5
2015-Apr-11 13:33N 49°10' W 123°56'3 0.4
2015-Apr-11 07:23N 49°11' W 123°52'0 0.0
2015-Apr-11 06:27N 49°11' W 123°52'  
Track history (hours):
 
Tides and Currents Weather Stations Pressure Air Temp Water Temp Dewpoint Dewpoint Depression Visibility Wind Speed Wind Dir Waves Ship Positions

Quinsam

Last reported at 2015-Apr-21 06:23 UTC. Time now 2015-Apr-21 08:14 UTC.
Position N 49°11' W 123°52'.

Length 88 m; draft 1.5 m.

Type: Ship. MMSI: 316001266.

Date/timePositionNaut miles runAvg speedWind from/ knotsBaromVisibWave heightAir tempDewpointWater temp
2015-Apr-21 06:23N 49°11' W 123°52'1 0.6
2015-Apr-21 05:33N 49°11' W 123°52'0 0.2
2015-Apr-21 04:33N 49°11' W 123°52'1 0.8
2015-Apr-21 03:33N 49°10' W 123°53'1 0.8
2015-Apr-21 02:34N 49°11' W 123°52'0 0.2
2015-Apr-21 01:33N 49°11' W 123°52'0 0.0
2015-Apr-21 00:33N 49°11' W 123°52'1 1.4
2015-Apr-20 23:33N 49°10' W 123°54'2 1.4
2015-Apr-20 22:30N 49°10' W 123°56'0 0.4
2015-Apr-20 21:33N 49°10' W 123°55'2 1.6
2015-Apr-20 20:33N 49°11' W 123°53'1 1.0
2015-Apr-20 19:33N 49°11' W 123°52'2 1.9
2015-Apr-20 18:33N 49°10' W 123°54'1 1.0
2015-Apr-20 17:32N 49°10' W 123°56'0 0.2
2015-Apr-20 16:33N 49°10' W 123°55'2 2.4
2015-Apr-20 15:33N 49°11' W 123°52'0 0.2
2015-Apr-20 14:32N 49°11' W 123°52'3 2.8
2015-Apr-20 13:33N 49°10' W 123°56'3 2.7
2015-Apr-20 12:31N 49°11' W 123°52'0 0.0
2015-Apr-20 10:25N 49°11' W 123°52'0 0.0
2015-Apr-20 09:07N 49°11' W 123°52'0 0.0
2015-Apr-20 08:31N 49°11' W 123°52'0 0.0
2015-Apr-20 07:31N 49°11' W 123°52'0 0.0
2015-Apr-20 06:25N 49°11' W 123°52'0 0.5
2015-Apr-20 05:33N 49°11' W 123°52'0 0.0
2015-Apr-20 04:33N 49°11' W 123°52'1 0.8
2015-Apr-20 03:33N 49°10' W 123°53'1 1.0
2015-Apr-20 02:33N 49°11' W 123°52'0 0.2
2015-Apr-20 01:32N 49°11' W 123°52'0 0.0
2015-Apr-20 00:32N 49°11' W 123°52'2 1.6
2015-Apr-19 23:33N 49°10' W 123°54'1 1.3
2015-Apr-19 22:33N 49°10' W 123°56'3 2.5
2015-Apr-19 21:23N 49°11' W 123°52'0 0.1
2015-Apr-19 20:32N 49°11' W 123°52'0 0.1
2015-Apr-19 19:31N 49°11' W 123°52'2 2.0
2015-Apr-19 18:33N 49°10' W 123°54'1 1.0
2015-Apr-19 17:33N 49°10' W 123°56'1 0.6
2015-Apr-19 16:34N 49°10' W 123°55'2 1.9
2015-Apr-19 15:32N 49°11' W 123°52'3 2.5
2015-Apr-19 14:31N 49°10' W 123°56'0 0.5
2015-Apr-19 13:33N 49°10' W 123°55'2 1.8
2015-Apr-19 12:13N 49°11' W 123°52'0 0.0
2015-Apr-19 11:31N 49°11' W 123°52'0 0.0
2015-Apr-19 10:25N 49°11' W 123°52'0 0.0
2015-Apr-19 09:25N 49°11' W 123°52'0 0.0
2015-Apr-19 08:31N 49°11' W 123°52'0 0.0
2015-Apr-19 07:31N 49°11' W 123°52'0 0.0
2015-Apr-19 06:31N 49°11' W 123°52'1 0.6
2015-Apr-19 05:33N 49°11' W 123°52'0 0.1
2015-Apr-19 04:33N 49°11' W 123°53'1 0.6
2015-Apr-19 03:33N 49°11' W 123°53'1 0.8
2015-Apr-19 02:31N 49°11' W 123°52'0 0.3
2015-Apr-19 01:32N 49°11' W 123°52'0 0.0
2015-Apr-19 00:31N 49°11' W 123°52'2 1.9
2015-Apr-18 23:33N 49°10' W 123°54'1 1.1
2015-Apr-18 22:33N 49°10' W 123°56'2 1.2
2015-Apr-18 20:33N 49°11' W 123°52'0 0.5
2015-Apr-18 19:33N 49°11' W 123°52'2 2.0
2015-Apr-18 18:33N 49°10' W 123°55'1 0.7
2015-Apr-18 17:26N 49°10' W 123°56'1 0.9
2015-Apr-18 16:33N 49°10' W 123°55'2 1.9
2015-Apr-18 15:33N 49°11' W 123°52'0 0.1
2015-Apr-18 14:33N 49°11' W 123°52'3 2.8
2015-Apr-18 13:33N 49°10' W 123°56'3 2.7
2015-Apr-18 12:31N 49°11' W 123°52'0 0.0
2015-Apr-18 11:28N 49°11' W 123°52'0 0.0
2015-Apr-18 10:28N 49°11' W 123°52'0 0.0
2015-Apr-18 09:13N 49°11' W 123°52'0 0.0
2015-Apr-18 08:25N 49°11' W 123°52'0 0.0
2015-Apr-18 07:28N 49°11' W 123°52'0 0.0
2015-Apr-18 06:28N 49°11' W 123°52'1 0.6
2015-Apr-18 05:33N 49°11' W 123°52'1 0.5
2015-Apr-18 04:34N 49°11' W 123°52'1 1.3
2015-Apr-18 03:33N 49°11' W 123°53'1 1.2
2015-Apr-18 02:33N 49°11' W 123°52'0 0.1
2015-Apr-18 01:33N 49°11' W 123°52'0 0.0
2015-Apr-18 00:33N 49°11' W 123°52'2 2.1
2015-Apr-17 23:33N 49°10' W 123°55'1 0.8
2015-Apr-17 22:33N 49°10' W 123°56'1 0.9
2015-Apr-17 21:33N 49°10' W 123°54'1 1.3
2015-Apr-17 20:30N 49°11' W 123°53'1 0.7
2015-Apr-17 19:33N 49°11' W 123°52'2 1.8
2015-Apr-17 18:33N 49°10' W 123°54'1 1.0
2015-Apr-17 17:30N 49°10' W 123°56'1 1.1
2015-Apr-17 16:34N 49°10' W 123°54'2 1.6
2015-Apr-17 15:31N 49°11' W 123°52'0 0.2
2015-Apr-17 14:33N 49°11' W 123°52'2 2.4
2015-Apr-17 13:33N 49°10' W 123°55'2 2.3
2015-Apr-17 12:29N 49°11' W 123°52'0 0.0
2015-Apr-17 11:11N 49°11' W 123°52'0 0.0
2015-Apr-17 10:29N 49°11' W 123°52'0 0.0
2015-Apr-17 09:29N 49°11' W 123°52'0 0.0
2015-Apr-17 08:26N 49°11' W 123°52'0 0.0
2015-Apr-17 07:26N 49°11' W 123°52'0 0.0
2015-Apr-17 06:29N 49°11' W 123°52'0 0.0
2015-Apr-17 05:33N 49°11' W 123°52'0 0.0
2015-Apr-17 04:33N 49°11' W 123°52'1 1.3
2015-Apr-17 03:33N 49°10' W 123°53'1 1.2
2015-Apr-17 02:33N 49°11' W 123°52'0 0.3
2015-Apr-17 01:26N 49°11' W 123°52'0 0.1
2015-Apr-17 00:13N 49°11' W 123°52'2 2.5
2015-Apr-16 23:33N 49°10' W 123°55'1 0.7
2015-Apr-16 22:33N 49°10' W 123°56'1 1.2
2015-Apr-16 21:33N 49°10' W 123°54'2 1.6
2015-Apr-16 20:31N 49°11' W 123°52'0 0.1
2015-Apr-16 19:22N 49°11' W 123°52'2 2.0
2015-Apr-16 18:33N 49°10' W 123°54'1 1.1
2015-Apr-16 17:25N 49°10' W 123°56'1 0.6
2015-Apr-16 16:33N 49°10' W 123°55'2 2.4
2015-Apr-16 15:33N 49°11' W 123°52'0 0.0
2015-Apr-16 14:33N 49°11' W 123°52'3 2.5
2015-Apr-16 13:33N 49°10' W 123°55'3 2.1
2015-Apr-16 12:20N 49°11' W 123°52'0 0.0
2015-Apr-16 11:26N 49°11' W 123°52'0 0.0
2015-Apr-16 10:26N 49°11' W 123°52'0 0.0
2015-Apr-16 09:32N 49°11' W 123°52'0 0.0
2015-Apr-16 08:32N 49°11' W 123°52'0 0.0
2015-Apr-16 07:29N 49°11' W 123°52'0 0.0
2015-Apr-16 06:21N 49°11' W 123°52'3 3.6
2015-Apr-16 05:33N 49°10' W 123°56'3 2.5
2015-Apr-16 04:34N 49°11' W 123°52'1 0.9
2015-Apr-16 03:33N 49°10' W 123°53'1 1.1
2015-Apr-16 02:33N 49°11' W 123°52'0 0.2
2015-Apr-16 01:31N 49°11' W 123°52'0 0.0
2015-Apr-16 00:27N 49°11' W 123°52'1 1.6
2015-Apr-15 23:33N 49°10' W 123°54'1 1.4
2015-Apr-15 22:33N 49°10' W 123°56'1 1.0
2015-Apr-15 21:33N 49°10' W 123°54'2 1.9
2015-Apr-15 20:33N 49°11' W 123°52'0 0.0
2015-Apr-15 19:21N 49°11' W 123°52'2 2.4
2015-Apr-15 18:33N 49°10' W 123°54'1 1.0
2015-Apr-15 17:31N 49°10' W 123°56'1 0.8
2015-Apr-15 16:33N 49°10' W 123°55'2 1.9
2015-Apr-15 15:31N 49°11' W 123°52'0 0.2
2015-Apr-15 14:29N 49°11' W 123°52'2 2.7
2015-Apr-15 13:33N 49°10' W 123°55'2 0.4
2015-Apr-15 07:30N 49°11' W 123°52'0 0.0
2015-Apr-15 06:33N 49°11' W 123°52'0 0.5
2015-Apr-15 05:33N 49°11' W 123°52'0 0.0
2015-Apr-15 04:33N 49°11' W 123°52'1 0.7
2015-Apr-15 03:33N 49°10' W 123°53'1 0.7
2015-Apr-15 02:32N 49°11' W 123°52'0 0.5
2015-Apr-15 01:33N 49°11' W 123°52'0 0.0
2015-Apr-15 00:33N 49°11' W 123°52'2 1.7
2015-Apr-14 23:33N 49°10' W 123°54'1 1.0
2015-Apr-14 22:26N 49°10' W 123°56'1 0.6
2015-Apr-14 21:33N 49°10' W 123°55'2 2.1
2015-Apr-14 20:30N 49°11' W 123°52'0 0.2
2015-Apr-14 19:24N 49°11' W 123°52'1 1.5
2015-Apr-14 18:33N 49°10' W 123°53'2 1.6
2015-Apr-14 17:33N 49°10' W 123°56'0 0.1
2015-Apr-14 16:33N 49°10' W 123°56'2 1.9
2015-Apr-14 15:33N 49°11' W 123°53'1 1.0
2015-Apr-14 14:34N 49°11' W 123°52'2 2.1
2015-Apr-14 13:33N 49°10' W 123°55'2 1.5
2015-Apr-14 12:10N 49°11' W 123°52'0 0.0
2015-Apr-14 09:19N 49°11' W 123°52'0 0.0
2015-Apr-14 07:28N 49°11' W 123°52'0 0.0
2015-Apr-14 06:31N 49°11' W 123°52'0 0.5
2015-Apr-14 05:33N 49°11' W 123°52'0 0.1
2015-Apr-14 04:34N 49°11' W 123°52'0 0.4
2015-Apr-14 03:33N 49°11' W 123°53'1 0.5
2015-Apr-14 02:34N 49°11' W 123°52'0 0.4
2015-Apr-14 01:33N 49°11' W 123°52'0 0.0
2015-Apr-14 00:31N 49°11' W 123°52'2 1.9
2015-Apr-13 23:33N 49°10' W 123°54'1 0.9
2015-Apr-13 22:25N 49°10' W 123°56'0 0.1
2015-Apr-13 21:33N 49°10' W 123°56'2 2.2
2015-Apr-13 20:33N 49°11' W 123°53'1 0.7
2015-Apr-13 19:29N 49°11' W 123°52'2 1.8
2015-Apr-13 18:33N 49°10' W 123°54'1 1.2
2015-Apr-13 17:32N 49°10' W 123°56'1 0.5
2015-Apr-13 16:33N 49°10' W 123°55'2 2.1
2015-Apr-13 15:32N 49°11' W 123°52'0 0.3
2015-Apr-13 14:33N 49°11' W 123°52'3 2.6
2015-Apr-13 13:33N 49°10' W 123°55'3 2.4
2015-Apr-13 12:28N 49°11' W 123°52'0 0.0
2015-Apr-13 11:16N 49°11' W 123°52'0 0.0
2015-Apr-13 07:07N 49°11' W 123°52'0 0.0
2015-Apr-13 06:31N 49°11' W 123°52'1 0.6
2015-Apr-13 05:34N 49°11' W 123°52'0 0.1
2015-Apr-13 04:33N 49°11' W 123°52'1 0.5
2015-Apr-13 03:33N 49°11' W 123°53'0 0.4
2015-Apr-13 02:34N 49°11' W 123°52'0 0.2
2015-Apr-13 01:27N 49°11' W 123°52'0 0.3
2015-Apr-13 00:33N 49°11' W 123°52'2 2.0
2015-Apr-12 23:33N 49°10' W 123°54'1 0.9
2015-Apr-12 22:29N 49°10' W 123°56'3 2.9
2015-Apr-12 21:29N 49°11' W 123°52'0 0.2
2015-Apr-12 20:32N 49°11' W 123°52'0 0.2
2015-Apr-12 19:33N 49°11' W 123°52'1 1.1
2015-Apr-12 18:33N 49°10' W 123°53'2 1.8
2015-Apr-12 17:33N 49°10' W 123°56'0 0.0
2015-Apr-12 16:33N 49°10' W 123°56'3 2.6
2015-Apr-12 15:33N 49°11' W 123°52'3 2.6
2015-Apr-12 14:33N 49°10' W 123°56'0 0.3
2015-Apr-12 13:33N 49°10' W 123°55'3 0.4
2015-Apr-12 06:29N 49°11' W 123°52'0 0.5
2015-Apr-12 05:34N 49°11' W 123°52'0 0.5
2015-Apr-12 04:33N 49°11' W 123°52'1 0.7
2015-Apr-12 03:33N 49°11' W 123°53'0 0.4
2015-Apr-12 02:33N 49°11' W 123°52'0 0.4
2015-Apr-12 01:33N 49°11' W 123°52'0 0.0
2015-Apr-12 00:33N 49°11' W 123°52'2 1.5
2015-Apr-11 23:33N 49°10' W 123°54'1 1.4
2015-Apr-11 22:33N 49°10' W 123°56'3 2.9
2015-Apr-11 21:33N 49°11' W 123°52'0 0.2
2015-Apr-11 20:33N 49°11' W 123°52'0 0.2
2015-Apr-11 19:28N 49°11' W 123°52'2 1.9
2015-Apr-11 18:33N 49°10' W 123°54'1 1.1
2015-Apr-11 17:33N 49°10' W 123°56'1 0.7
2015-Apr-11 16:33N 49°10' W 123°55'2 2.0
2015-Apr-11 15:33N 49°11' W 123°52'0 0.1
2015-Apr-11 14:21N 49°11' W 123°52'3 3.5
2015-Apr-11 13:33N 49°10' W 123°56'3 0.4
2015-Apr-11 07:23N 49°11' W 123°52'0 0.0
2015-Apr-11 06:27N 49°11' W 123°52'  

Dump ship's entire track history